Time;durP1;ratioP1;P1;durP2;ratioP2;P2;SDS_P1;SDS_P2;PMS_P1;PMS_P2;Temp;Humidity;BMP_temperature;BMP_pressure;BME280_temperature;BME280_humidity;BME280_pressure;Samples;Min_cycle;Max_cycle;Signal;HPM_P1;HPM_P2
2020/12/26 00:02:12;;;;;;;11.20;5.33;;;2.90;99.90;;;;;;4969191;28;20200;-67
2020/12/26 00:04:39;;;;;;;9.00;5.17;;;2.90;99.90;;;;;;4966054;28;20721;-68
2020/12/26 00:07:05;;;;;;;9.13;4.70;;;2.90;99.90;;;;;;4966309;28;20602;-67
2020/12/26 00:09:32;;;;;;;8.50;4.50;;;2.80;99.90;;;;;;4954632;28;20357;-68
2020/12/26 00:11:58;;;;;;;7.70;4.40;;;2.80;99.90;;;;;;4934828;29;20362;-68
2020/12/26 00:14:27;;;;;;;8.37;4.67;;;2.80;99.90;;;;;;4930726;29;20259;-67
2020/12/26 00:16:55;;;;;;;7.50;4.17;;;2.80;99.90;;;;;;4927877;29;20622;-67
2020/12/26 00:19:22;;;;;;;7.17;3.83;;;2.80;99.90;;;;;;4944343;28;20291;-67
2020/12/26 00:21:49;;;;;;;4.67;3.30;;;2.80;99.90;;;;;;4950103;28;20543;-67
2020/12/26 00:24:15;;;;;;;8.60;4.60;;;2.80;99.90;;;;;;4929453;28;20599;-67
2020/12/26 00:26:43;;;;;;;8.93;4.23;;;2.70;99.90;;;;;;4935670;29;20571;-67
2020/12/26 00:29:10;;;;;;;10.13;4.67;;;2.70;99.90;;;;;;4953195;28;20212;-68
2020/12/26 00:31:37;;;;;;;8.83;4.40;;;2.70;99.90;;;;;;4949319;28;20216;-66
2020/12/26 00:34:08;;;;;;;6.90;4.10;;;2.70;99.90;;;;;;4946401;28;20225;-68
2020/12/26 00:36:37;;;;;;;8.10;3.90;;;2.70;99.90;;;;;;4966177;28;20244;-68
2020/12/26 00:39:04;;;;;;;8.60;4.50;;;2.70;99.90;;;;;;4965364;28;20383;-68
2020/12/26 00:41:31;;;;;;;10.93;4.77;;;1.70;99.90;;;;;;5004415;28;20203;-68
2020/12/26 00:43:57;;;;;;;8.67;4.63;;;2.70;99.90;;;;;;5023538;28;20216;-67
2020/12/26 00:46:25;;;;;;;10.67;5.50;;;2.70;99.90;;;;;;4989503;28;20204;-67
2020/12/26 00:48:53;;;;;;;9.83;4.63;;;2.70;99.90;;;;;;4990832;28;20208;-68
2020/12/26 00:51:20;;;;;;;10.67;5.07;;;2.70;99.90;;;;;;4989082;28;20749;-68
2020/12/26 00:53:47;;;;;;;9.20;4.10;;;2.70;99.90;;;;;;4992635;28;20231;-67
2020/12/26 00:56:14;;;;;;;9.83;4.77;;;2.70;99.90;;;;;;4989449;28;20532;-65
2020/12/26 00:58:40;;;;;;;7.97;4.70;;;2.70;99.90;;;;;;4995713;28;20889;-67
2020/12/26 01:01:08;;;;;;;8.10;3.80;;;2.60;99.90;;;;;;5011684;28;20229;-68
2020/12/26 01:04:05;;;;;;;9.47;3.83;;;2.70;99.90;;;;;;4971459;28;20201;-68
2020/12/26 01:06:31;;;;;;;6.63;3.53;;;2.70;99.90;;;;;;4971542;28;20282;-68
2020/12/26 01:08:58;;;;;;;4.67;3.63;;;2.70;99.90;;;;;;5015911;28;20238;-69
2020/12/26 01:11:24;;;;;;;4.97;3.50;;;2.70;99.90;;;;;;5010872;28;20218;-68
2020/12/26 01:13:51;;;;;;;5.37;2.93;;;2.70;99.90;;;;;;5013607;28;20227;-68
2020/12/26 01:16:18;;;;;;;4.20;2.67;;;2.70;99.90;;;;;;5009301;28;20262;-68
2020/12/26 01:18:44;;;;;;;3.77;2.63;;;2.70;99.90;;;;;;5033010;28;20311;-69
2020/12/26 01:21:14;;;;;;;4.17;2.47;;;2.70;99.90;;;;;;5033396;28;20402;-69
2020/12/26 01:23:42;;;;;;;3.80;3.10;;;2.70;99.90;;;;;;5030984;28;20213;-66
2020/12/26 01:26:09;;;;;;;6.00;3.10;;;2.70;99.90;;;;;;5010694;28;20207;-67
2020/12/26 01:28:36;;;;;;;3.43;2.87;;;2.70;99.90;;;;;;5010002;28;20766;-66
2020/12/26 01:31:02;;;;;;;4.57;3.20;;;2.60;99.90;;;;;;5010680;28;20198;-68
2020/12/26 01:33:29;;;;;;;3.77;2.50;;;2.60;99.90;;;;;;5020007;28;20222;-69
2020/12/26 01:35:56;;;;;;;5.03;3.30;;;2.60;99.90;;;;;;5031304;28;20221;-68
2020/12/26 01:38:23;;;;;;;5.37;3.33;;;2.60;99.90;;;;;;5030657;28;20194;-68
2020/12/26 01:40:50;;;;;;;4.77;3.40;;;2.60;99.90;;;;;;5038280;28;20301;-68
2020/12/26 01:43:17;;;;;;;6.10;3.83;;;2.60;99.90;;;;;;5040993;28;20210;-68
2020/12/26 01:45:43;;;;;;;6.80;3.90;;;2.70;99.90;;;;;;5084773;28;20684;-68
2020/12/26 01:48:14;;;;;;;6.27;3.90;;;2.70;99.90;;;;;;5090630;28;20749;-68
2020/12/26 01:50:41;;;;;;;6.33;4.07;;;2.70;99.90;;;;;;5089987;28;20203;-67
2020/12/26 01:53:10;;;;;;;6.97;4.23;;;2.60;99.90;;;;;;5093526;28;20224;-68
2020/12/26 01:55:38;;;;;;;6.13;4.13;;;2.70;99.90;;;;;;5086510;28;20200;-68
2020/12/26 01:58:05;;;;;;;8.13;4.27;;;2.60;99.90;;;;;;5090149;28;20208;-69
2020/12/26 02:00:31;;;;;;;5.43;3.47;;;2.70;99.90;;;;;;5087250;28;20573;-69
2020/12/26 02:02:58;;;;;;;6.27;3.53;;;2.70;99.90;;;;;;5096095;28;20200;-69
2020/12/26 02:05:25;;;;;;;8.53;4.10;;;2.70;99.90;;;;;;5099077;28;20238;-68
2020/12/26 02:07:52;;;;;;;5.60;3.70;;;2.70;99.90;;;;;;5085416;28;20209;-68
2020/12/26 02:10:18;;;;;;;8.50;4.03;;;2.70;99.90;;;;;;5069085;28;20228;-69
2020/12/26 02:12:47;;;;;;;7.67;3.90;;;2.70;99.90;;;;;;5070264;28;20233;-69
2020/12/26 02:15:14;;;;;;;10.07;4.40;;;2.60;99.90;;;;;;5074176;28;20208;-68
2020/12/26 02:17:41;;;;;;;6.67;3.97;;;2.60;99.90;;;;;;5036299;28;20602;-68
2020/12/26 02:20:08;;;;;;;7.10;3.70;;;2.60;99.90;;;;;;5016575;28;20659;-67
2020/12/26 02:22:35;;;;;;;6.87;4.33;;;2.60;99.90;;;;;;5014359;28;20226;-68
2020/12/26 02:25:02;;;;;;;8.27;4.00;;;2.60;99.90;;;;;;5016867;28;20199;-67
2020/12/26 02:27:29;;;;;;;6.57;4.17;;;2.60;99.90;;;;;;4975100;28;20227;-68
2020/12/26 02:29:55;;;;;;;7.13;4.20;;;2.60;99.90;;;;;;4969568;28;20212;-67
2020/12/26 02:32:22;;;;;;;9.00;4.60;;;2.60;99.90;;;;;;4971635;28;20212;-67
2020/12/26 02:34:48;;;;;;;8.93;4.43;;;2.50;99.90;;;;;;5011538;28;20643;-67
2020/12/26 02:37:15;;;;;;;8.70;4.80;;;2.50;99.90;;;;;;5013866;28;20215;-67
2020/12/26 02:39:42;;;;;;;7.73;3.90;;;2.50;99.90;;;;;;5011833;28;20222;-67
2020/12/26 02:42:09;;;;;;;7.67;4.60;;;2.50;99.90;;;;;;5031144;28;20236;-68
2020/12/26 02:44:36;;;;;;;7.47;4.13;;;2.50;99.90;;;;;;5032031;28;20280;-68
2020/12/26 02:47:02;;;;;;;7.00;4.00;;;2.50;99.90;;;;;;5034380;28;20213;-67
2020/12/26 02:49:29;;;;;;;6.83;4.13;;;2.50;99.90;;;;;;5032654;28;20595;-68
2020/12/26 02:51:56;;;;;;;5.77;4.10;;;2.50;99.90;;;;;;5033778;28;20666;-68
2020/12/26 02:54:22;;;;;;;8.80;4.43;;;2.50;99.90;;;;;;5037865;28;20610;-68
2020/12/26 02:56:49;;;;;;;8.43;4.13;;;2.50;99.90;;;;;;5054102;28;20232;-68
2020/12/26 02:59:16;;;;;;;7.70;3.60;;;2.50;99.90;;;;;;5056582;28;20216;-68
2020/12/26 03:01:43;;;;;;;8.60;3.97;;;2.50;99.90;;;;;;5080582;28;20254;-68
2020/12/26 03:04:09;;;;;;;9.10;3.43;;;2.50;99.90;;;;;;5075012;28;20200;-68
2020/12/26 03:06:36;;;;;;;6.47;3.83;;;2.50;99.90;;;;;;5088293;28;20254;-68
2020/12/26 03:09:03;;;;;;;5.77;3.40;;;2.50;99.90;;;;;;5115325;27;20262;-67
2020/12/26 03:11:29;;;;;;;6.97;3.40;;;2.50;99.90;;;;;;5115851;27;20199;-68
2020/12/26 03:13:56;;;;;;;4.63;3.37;;;2.50;99.90;;;;;;5068573;28;20358;-68
2020/12/26 03:16:24;;;;;;;5.00;3.33;;;2.50;99.90;;;;;;5066395;28;20204;-68
2020/12/26 03:18:50;;;;;;;5.77;3.60;;;2.50;99.90;;;;;;5069373;28;20209;-68
2020/12/26 03:21:17;;;;;;;5.33;3.27;;;2.50;99.90;;;;;;5078938;28;20220;-67
2020/12/26 03:23:44;;;;;;;4.20;3.00;;;2.40;99.90;;;;;;5067103;28;20276;-68
2020/12/26 03:26:10;;;;;;;5.73;3.47;;;2.40;99.90;;;;;;5056246;28;20256;-68
2020/12/26 03:28:37;;;;;;;3.20;2.90;;;2.40;99.90;;;;;;5047495;28;20284;-68
2020/12/26 03:31:04;;;;;;;4.63;3.10;;;2.30;99.90;;;;;;5047065;28;20598;-69
2020/12/26 03:33:31;;;;;;;5.47;3.10;;;2.30;99.90;;;;;;5047752;28;20244;-68
2020/12/26 03:35:58;;;;;;;3.73;2.80;;;2.20;99.90;;;;;;5049197;28;20198;-68
2020/12/26 03:38:24;;;;;;;3.63;2.50;;;2.10;99.90;;;;;;5047287;28;20775;-68
2020/12/26 03:40:51;;;;;;;3.47;2.77;;;2.10;99.90;;;;;;5037334;28;20620;-68
2020/12/26 03:43:18;;;;;;;6.97;3.20;;;2.10;99.90;;;;;;5048284;28;20288;-68
2020/12/26 03:45:44;;;;;;;4.67;3.33;;;2.10;99.90;;;;;;5065904;28;20213;-68
2020/12/26 03:48:11;;;;;;;3.70;2.83;;;2.00;99.90;;;;;;5068424;28;20213;-68
2020/12/26 03:50:38;;;;;;;4.53;3.10;;;2.00;99.90;;;;;;5071918;28;20227;-68
2020/12/26 03:53:05;;;;;;;3.17;2.80;;;1.90;99.90;;;;;;5070365;28;20592;-68
2020/12/26 03:55:31;;;;;;;3.67;2.30;;;1.90;99.90;;;;;;5073220;28;20574;-68
2020/12/26 03:57:58;;;;;;;4.00;2.70;;;1.90;99.90;;;;;;5048301;28;20204;-68
2020/12/26 04:00:24;;;;;;;2.63;2.40;;;1.80;99.90;;;;;;5049063;28;20214;-68
2020/12/26 04:02:51;;;;;;;2.53;2.23;;;1.80;99.90;;;;;;5052947;28;20302;-68
2020/12/26 04:05:18;;;;;;;2.33;2.13;;;1.80;99.90;;;;;;5034464;28;20200;-68
2020/12/26 04:07:45;;;;;;;2.63;2.37;;;1.80;99.90;;;;;;5071308;28;20205;-68
2020/12/26 04:10:12;;;;;;;2.20;2.00;;;1.80;99.90;;;;;;5084226;28;20289;-68
2020/12/26 04:12:38;;;;;;;3.43;2.30;;;1.80;99.90;;;;;;5087796;28;20258;-68
2020/12/26 04:15:05;;;;;;;3.43;2.53;;;1.80;99.90;;;;;;5045643;28;20301;-68
2020/12/26 04:17:33;;;;;;;2.60;2.40;;;1.90;99.90;;;;;;5044313;28;20213;-68
2020/12/26 04:19:59;;;;;;;2.53;2.20;;;1.90;99.90;;;;;;5046895;28;20214;-66
2020/12/26 04:22:26;;;;;;;2.37;2.13;;;2.00;99.90;;;;;;5050709;28;20217;-67
2020/12/26 04:24:53;;;;;;;3.23;2.67;;;2.00;99.90;;;;;;5051816;28;20209;-66
2020/12/26 04:27:20;;;;;;;4.60;3.10;;;2.10;99.90;;;;;;5031579;28;20216;-66
2020/12/26 04:29:48;;;;;;;4.87;3.20;;;2.00;99.90;;;;;;4990804;28;20239;-66
2020/12/26 04:32:14;;;;;;;5.93;3.17;;;2.10;99.90;;;;;;4993138;28;20668;-67
2020/12/26 04:34:41;;;;;;;7.17;4.03;;;2.10;99.90;;;;;;4992891;28;20246;-67
2020/12/26 04:37:07;;;;;;;5.83;3.87;;;2.20;99.90;;;;;;4993183;28;20246;-68
2020/12/26 04:39:34;;;;;;;5.00;3.60;;;2.20;99.90;;;;;;4992043;28;20246;-67
2020/12/26 04:42:02;;;;;;;5.77;3.53;;;2.20;99.90;;;;;;4994543;28;20207;-67
2020/12/26 04:44:29;;;;;;;6.87;3.70;;;2.10;99.90;;;;;;4971675;28;20207;-67
2020/12/26 04:46:57;;;;;;;4.37;3.37;;;2.20;99.90;;;;;;4948491;29;20240;-67
2020/12/26 04:49:30;;;;;;;5.57;3.47;;;2.20;99.90;;;;;;4952527;28;20586;-68
2020/12/26 04:51:58;;;;;;;5.43;3.23;;;2.20;99.90;;;;;;4921707;29;20211;-68
2020/12/26 04:54:26;;;;;;;4.73;3.43;;;2.10;99.90;;;;;;4929150;29;20631;-67
2020/12/26 04:56:55;;;;;;;6.13;3.63;;;2.10;99.90;;;;;;4923194;29;20309;-67
2020/12/26 04:59:24;;;;;;;4.43;3.17;;;2.10;99.90;;;;;;4959106;28;20254;-66
2020/12/26 05:01:52;;;;;;;5.70;3.23;;;2.10;99.90;;;;;;4980043;28;20208;-66
2020/12/26 05:04:19;;;;;;;4.93;3.20;;;2.10;99.90;;;;;;4983168;28;20207;-66
2020/12/26 05:06:47;;;;;;;4.83;2.93;;;2.10;99.90;;;;;;4981728;28;20212;-67
2020/12/26 05:09:15;;;;;;;4.10;2.83;;;2.10;99.90;;;;;;4982462;28;20240;-67
2020/12/26 05:11:49;;;;;;;4.33;3.10;;;2.10;99.90;;;;;;4982574;28;20210;-68
2020/12/26 05:14:17;;;;;;;2.50;2.30;;;2.10;99.90;;;;;;4996196;28;20230;-67
2020/12/26 05:16:45;;;;;;;4.30;3.00;;;2.10;99.90;;;;;;4997286;28;20276;-67
2020/12/26 05:19:11;;;;;;;2.80;2.40;;;2.10;99.90;;;;;;5023236;28;20674;-67
2020/12/26 05:21:38;;;;;;;4.43;2.70;;;2.10;99.90;;;;;;5034119;28;20203;-67
2020/12/26 05:24:06;;;;;;;4.10;3.00;;;2.10;99.90;;;;;;5046887;28;20194;-67
2020/12/26 05:26:41;;;;;;;3.37;2.53;;;2.10;99.90;;;;;;5060757;28;20312;-67
2020/12/26 05:29:09;;;;;;;3.17;2.60;;;2.10;99.90;;;;;;5024257;28;20505;-67
2020/12/26 05:31:48;;;;;;;4.43;2.90;;;2.10;99.90;;;;;;5010648;28;20212;-68
2020/12/26 05:34:15;;;;;;;4.13;2.70;;;2.20;99.90;;;;;;5009751;28;20238;-68
2020/12/26 05:36:42;;;;;;;4.00;3.10;;;2.20;99.90;;;;;;5011376;28;20286;-68
2020/12/26 05:39:11;;;;;;;5.43;2.73;;;2.20;99.90;;;;;;5010369;28;20663;-68
2020/12/26 05:41:40;;;;;;;3.07;2.50;;;2.20;99.90;;;;;;5010686;28;20757;-68
2020/12/26 05:44:07;;;;;;;3.77;2.60;;;2.20;99.90;;;;;;5009740;28;20235;-67
2020/12/26 05:46:33;;;;;;;4.37;3.10;;;2.20;99.90;;;;;;4992071;28;20651;-68
2020/12/26 05:49:22;;;;;;;5.70;2.93;;;2.20;99.90;;;;;;4991133;28;20377;-68
2020/12/26 05:51:51;;;;;;;5.43;3.27;;;2.20;99.90;;;;;;4997015;28;20229;-68
2020/12/26 05:54:19;;;;;;;5.00;3.17;;;2.20;99.90;;;;;;5034557;28;20226;-68
2020/12/26 05:56:46;;;;;;;5.63;3.77;;;2.20;99.90;;;;;;5060745;28;20219;-68
2020/12/26 05:59:25;;;;;;;5.03;3.70;;;2.30;99.90;;;;;;5078340;28;20204;-67
2020/12/26 06:01:55;;;;;;;5.63;3.30;;;2.30;99.90;;;;;;5114038;27;20203;-68
2020/12/26 06:04:22;;;;;;;4.77;3.17;;;2.20;99.90;;;;;;5090509;28;20248;-68
2020/12/26 06:06:52;;;;;;;5.53;3.60;;;2.20;99.90;;;;;;5093692;28;20212;-68
2020/12/26 06:09:20;;;;;;;6.47;3.87;;;2.20;99.90;;;;;;5091456;28;20263;-68
2020/12/26 06:11:48;;;;;;;5.50;3.53;;;2.20;99.90;;;;;;5100281;28;20710;-68
2020/12/26 06:14:19;;;;;;;7.20;4.10;;;2.20;99.90;;;;;;5091969;28;20759;-68
2020/12/26 06:16:50;;;;;;;5.93;3.90;;;2.20;99.90;;;;;;5092652;28;20557;-68
2020/12/26 06:19:22;;;;;;;6.80;4.13;;;2.20;99.90;;;;;;5048821;28;20657;-68
2020/12/26 06:21:52;;;;;;;4.97;3.67;;;2.10;99.90;;;;;;5044478;28;20221;-67
2020/12/26 06:24:19;;;;;;;6.90;4.50;;;2.10;99.90;;;;;;5047896;28;20202;-68
2020/12/26 06:26:47;;;;;;;6.97;4.03;;;2.10;99.90;;;;;;5049979;28;20210;-68
2020/12/26 06:29:18;;;;;;;8.43;4.40;;;2.10;99.90;;;;;;5048225;28;20214;-68
2020/12/26 06:31:46;;;;;;;7.50;4.20;;;2.10;99.90;;;;;;5048542;28;20251;-67
2020/12/26 06:34:17;;;;;;;7.20;4.40;;;2.10;99.90;;;;;;5048788;28;20225;-68
2020/12/26 06:36:44;;;;;;;5.10;3.93;;;2.10;99.90;;;;;;5083766;28;20207;-68
2020/12/26 06:39:28;;;;;;;8.90;4.70;;;2.10;99.90;;;;;;5089812;28;20227;-67
2020/12/26 06:42:13;;;;;;;7.17;4.33;;;2.10;99.90;;;;;;5069423;28;20204;-68
2020/12/26 06:44:40;;;;;;;6.77;4.30;;;2.10;99.90;;;;;;5068620;28;20204;-68
2020/12/26 06:47:07;;;;;;;8.03;4.67;;;2.10;99.90;;;;;;5048246;28;20210;-68
2020/12/26 06:49:33;;;;;;;6.33;3.90;;;2.10;99.90;;;;;;5048447;28;20241;-68
2020/12/26 06:52:00;;;;;;;7.53;4.43;;;2.10;99.90;;;;;;5048822;28;20308;-68
2020/12/26 06:54:48;;;;;;;9.50;4.50;;;2.10;99.90;;;;;;5049763;28;20237;-68
2020/12/26 06:57:37;;;;;;;6.97;4.17;;;2.10;99.90;;;;;;5051648;28;20206;-68
2020/12/26 07:00:28;;;;;;;6.87;4.10;;;2.10;99.90;;;;;;5054619;28;20252;-68
2020/12/26 07:03:23;;;;;;;8.67;3.67;;;2.10;99.90;;;;;;5054277;28;20201;-68
2020/12/26 07:05:51;;;;;;;7.93;4.20;;;2.10;99.90;;;;;;5048956;28;20202;-68
2020/12/26 07:08:24;;;;;;;8.30;3.93;;;2.10;99.90;;;;;;5017169;28;20229;-68
2020/12/26 07:10:52;;;;;;;8.27;4.30;;;2.10;99.90;;;;;;5009770;28;20611;-68
2020/12/26 07:13:41;;;;;;;6.87;4.20;;;2.10;99.90;;;;;;5026975;28;20257;-68
2020/12/26 07:16:38;;;;;;;9.40;4.43;;;2.10;99.90;;;;;;5028027;28;20214;-68
2020/12/26 07:19:26;;;;;;;9.57;4.10;;;2.00;99.90;;;;;;5008078;28;20226;-67
2020/12/26 07:21:53;;;;;;;6.47;4.23;;;1.90;99.90;;;;;;5013035;28;20698;-68
2020/12/26 07:24:25;;;;;;;7.13;4.30;;;1.90;99.90;;;;;;5011652;28;20639;-68
2020/12/26 07:26:53;;;;;;;7.57;4.27;;;1.90;99.90;;;;;;5009177;28;20207;-68
2020/12/26 07:29:24;;;;;;;9.47;4.63;;;1.80;99.90;;;;;;5006658;28;20211;-68
2020/12/26 07:31:50;;;;;;;9.23;4.97;;;2.40;99.90;;;;;;5008592;28;20290;-67
2020/12/26 07:34:36;;;;;;;7.93;4.00;;;1.80;99.90;;;;;;5008726;28;20227;-68
2020/12/26 07:37:03;;;;;;;8.97;4.77;;;1.90;99.90;;;;;;5010136;28;20202;-69
2020/12/26 07:39:30;;;;;;;8.73;4.77;;;1.90;99.90;;;;;;5009416;28;20218;-68
2020/12/26 07:41:57;;;;;;;8.83;4.80;;;1.90;99.90;;;;;;5010698;28;20206;-68
2020/12/26 07:44:30;;;;;;;11.10;5.03;;;1.90;99.90;;;;;;5031159;28;20280;-68
2020/12/26 07:46:57;;;;;;;8.70;5.07;;;1.90;99.90;;;;;;5047264;28;20201;-68
2020/12/26 07:49:25;;;;;;;12.07;5.60;;;1.90;99.90;;;;;;5047357;28;20233;-68
2020/12/26 07:52:04;;;;;;;13.20;6.20;;;1.80;99.90;;;;;;5091854;28;20741;-68
2020/12/26 07:54:31;;;;;;;14.13;6.90;;;1.80;99.90;;;;;;5069791;28;20228;-68
2020/12/26 07:56:59;;;;;;;14.77;7.13;;;1.80;99.90;;;;;;5075008;28;20345;-67
2020/12/26 07:59:26;;;;;;;10.57;6.53;;;1.80;99.90;;;;;;5052519;28;20198;-67
2020/12/26 08:01:53;;;;;;;11.10;6.87;;;1.90;99.90;;;;;;5070975;28;20665;-67
2020/12/26 08:04:20;;;;;;;14.73;8.13;;;1.90;99.90;;;;;;5071996;28;20232;-67
2020/12/26 08:06:47;;;;;;;19.77;9.10;;;2.00;99.90;;;;;;5074589;28;20209;-67
2020/12/26 08:09:14;;;;;;;14.37;8.30;;;2.00;99.90;;;;;;5072602;28;20272;-67
2020/12/26 08:11:42;;;;;;;16.40;9.23;;;1.90;99.90;;;;;;5076946;28;20204;-68
2020/12/26 08:14:10;;;;;;;14.53;9.30;;;2.00;99.90;;;;;;5031529;28;20264;-68
2020/12/26 08:16:37;;;;;;;17.53;9.07;;;2.10;99.90;;;;;;5026107;28;20622;-67
2020/12/26 08:19:05;;;;;;;14.90;8.33;;;2.20;99.90;;;;;;5026916;28;20611;-68
2020/12/26 08:21:32;;;;;;;16.53;9.57;;;2.30;99.90;;;;;;5031902;28;20317;-68
2020/12/26 08:23:59;;;;;;;14.60;8.47;;;2.40;99.90;;;;;;5013629;28;20203;-68
2020/12/26 08:26:27;;;;;;;12.40;7.50;;;2.40;99.90;;;;;;5025222;28;20293;-68
2020/12/26 08:28:58;;;;;;;12.13;7.50;;;2.40;99.90;;;;;;5014410;28;20655;-67
2020/12/26 08:31:27;;;;;;;12.63;7.33;;;2.40;99.90;;;;;;4987577;28;20660;-67
2020/12/26 08:34:01;;;;;;;15.13;7.67;;;2.50;99.90;;;;;;5025084;28;20281;-67
2020/12/26 08:36:32;;;;;;;16.80;8.20;;;2.40;99.90;;;;;;5042034;28;20238;-67
2020/12/26 08:39:00;;;;;;;12.53;7.07;;;2.50;99.90;;;;;;5065747;28;20209;-68
2020/12/26 08:41:27;;;;;;;12.93;6.73;;;2.40;99.90;;;;;;5065568;28;20332;-68
2020/12/26 08:43:54;;;;;;;15.40;7.50;;;2.50;99.90;;;;;;5071820;28;20655;-68
2020/12/26 08:46:23;;;;;;;12.60;7.10;;;2.50;99.90;;;;;;5089582;28;20212;-68
2020/12/26 08:48:52;;;;;;;15.60;7.30;;;2.50;99.90;;;;;;5092584;28;20730;-68
2020/12/26 08:51:20;;;;;;;15.83;7.93;;;2.50;99.90;;;;;;5089702;28;20280;-68
2020/12/26 08:53:48;;;;;;;16.90;8.00;;;2.60;99.90;;;;;;5089453;28;20216;-67
2020/12/26 08:56:14;;;;;;;16.30;7.97;;;2.70;99.90;;;;;;5091414;28;20649;-68
2020/12/26 08:58:48;;;;;;;21.57;8.83;;;2.80;99.90;;;;;;5070201;28;20727;-68
2020/12/26 09:01:15;;;;;;;17.77;7.87;;;2.80;99.90;;;;;;5070220;28;20315;-68
2020/12/26 09:03:48;;;;;;;16.97;8.63;;;2.80;99.90;;;;;;5072109;28;20211;-67
2020/12/26 09:06:16;;;;;;;19.80;9.00;;;2.80;99.90;;;;;;5069281;28;20244;-68
2020/12/26 09:08:43;;;;;;;19.43;8.80;;;2.80;99.90;;;;;;5074023;28;20225;-68
2020/12/26 09:11:12;;;;;;;14.07;7.90;;;2.80;99.90;;;;;;5075747;28;20196;-68
2020/12/26 09:13:40;;;;;;;14.97;7.53;;;2.80;99.90;;;;;;5074855;28;20317;-68
2020/12/26 09:16:09;;;;;;;13.53;7.37;;;2.90;99.90;;;;;;5072702;28;20201;-68
2020/12/26 09:18:41;;;;;;;16.80;8.20;;;2.90;99.90;;;;;;5073740;28;20208;-69
2020/12/26 09:21:19;;;;;;;14.50;7.20;;;3.00;99.90;;;;;;5076486;28;20205;-69
2020/12/26 09:23:48;;;;;;;14.60;6.63;;;3.00;99.90;;;;;;5077483;28;20205;-68
2020/12/26 09:26:16;;;;;;;12.80;5.73;;;2.90;99.90;;;;;;5030883;28;20202;-68
2020/12/26 09:28:47;;;;;;;14.20;5.83;;;2.90;99.90;;;;;;5031679;28;20202;-68
2020/12/26 09:31:14;;;;;;;10.10;5.37;;;2.90;99.90;;;;;;5046456;28;20251;-67
2020/12/26 09:33:41;;;;;;;12.20;5.90;;;2.80;99.90;;;;;;5063949;28;20716;-68
2020/12/26 09:36:11;;;;;;;10.50;5.60;;;2.80;99.90;;;;;;5109188;28;20231;-68
2020/12/26 09:38:39;;;;;;;12.37;5.40;;;2.80;99.90;;;;;;5049605;28;20298;-68
2020/12/26 09:41:14;;;;;;;8.80;5.63;;;2.80;99.90;;;;;;5030551;28;20206;-68
2020/12/26 09:43:42;;;;;;;11.13;5.70;;;2.90;99.90;;;;;;5011005;28;20669;-68
2020/12/26 09:46:08;;;;;;;12.13;5.60;;;2.90;99.90;;;;;;4990997;28;20228;-68
2020/12/26 09:48:35;;;;;;;14.97;5.93;;;2.90;99.90;;;;;;4995573;28;20203;-68
2020/12/26 09:51:02;;;;;;;17.27;6.57;;;2.90;99.90;;;;;;4995030;28;20235;-68
2020/12/26 09:53:28;;;;;;;15.23;6.53;;;3.00;99.90;;;;;;4991949;28;20682;-68
2020/12/26 09:55:55;;;;;;;14.93;6.87;;;3.00;99.90;;;;;;5035296;28;20254;-68
2020/12/26 09:58:23;;;;;;;14.73;6.13;;;3.10;99.90;;;;;;5067519;28;20201;-68
2020/12/26 10:00:49;;;;;;;12.30;6.10;;;3.10;99.90;;;;;;5070547;28;20255;-68
2020/12/26 10:03:16;;;;;;;16.10;6.90;;;3.20;99.90;;;;;;5065165;28;20228;-67
2020/12/26 10:05:42;;;;;;;13.10;5.93;;;3.20;99.90;;;;;;5066080;28;20201;-68
2020/12/26 10:08:09;;;;;;;15.50;6.60;;;3.30;99.90;;;;;;5060553;28;20233;-68
2020/12/26 10:10:35;;;;;;;16.33;6.67;;;3.30;99.90;;;;;;5087354;28;20204;-67
2020/12/26 10:13:02;;;;;;;13.27;5.70;;;3.40;99.90;;;;;;5090193;28;20286;-68
2020/12/26 10:15:29;;;;;;;11.57;6.23;;;3.50;99.90;;;;;;5090972;28;20255;-68
2020/12/26 10:17:56;;;;;;;14.47;6.17;;;3.60;99.90;;;;;;5089768;28;20195;-68
2020/12/26 10:20:23;;;;;;;15.70;6.53;;;3.50;99.90;;;;;;5101205;28;20203;-67
2020/12/26 10:22:49;;;;;;;12.80;6.03;;;3.60;99.90;;;;;;5070295;28;20204;-67
2020/12/26 10:25:16;;;;;;;15.33;7.27;;;3.60;99.90;;;;;;5069868;28;20228;-67
2020/12/26 10:27:42;;;;;;;15.73;6.77;;;3.70;99.90;;;;;;5026663;28;20203;-67
2020/12/26 10:30:09;;;;;;;14.63;6.63;;;3.70;99.90;;;;;;4969233;28;20211;-67
2020/12/26 10:32:36;;;;;;;17.83;7.17;;;3.70;99.90;;;;;;4972542;28;20515;-67
2020/12/26 10:35:03;;;;;;;18.93;7.23;;;3.60;99.90;;;;;;4969254;28;20225;-67
2020/12/26 10:37:29;;;;;;;17.20;6.73;;;3.60;99.90;;;;;;4970131;28;20204;-67
2020/12/26 10:39:56;;;;;;;19.10;6.60;;;3.60;99.90;;;;;;4973326;28;20231;-67
2020/12/26 10:42:23;;;;;;;14.93;6.43;;;3.60;99.90;;;;;;4989958;28;20208;-67
2020/12/26 10:44:49;;;;;;;16.37;6.63;;;3.50;99.90;;;;;;4989179;28;20215;-67
2020/12/26 10:47:16;;;;;;;18.23;6.80;;;3.60;99.90;;;;;;4995127;28;20212;-67
2020/12/26 10:49:43;;;;;;;14.57;6.53;;;3.60;99.90;;;;;;4992541;28;20303;-67
2020/12/26 10:52:10;;;;;;;16.87;7.20;;;3.60;99.90;;;;;;4953388;28;20212;-67
2020/12/26 10:54:36;;;;;;;16.93;6.37;;;3.70;99.90;;;;;;4984926;28;20254;-67
2020/12/26 10:57:03;;;;;;;18.53;7.20;;;3.70;99.90;;;;;;4996741;28;20200;-68
2020/12/26 10:59:30;;;;;;;18.00;7.57;;;3.70;99.90;;;;;;5024839;28;20207;-68
2020/12/26 11:01:56;;;;;;;18.87;7.10;;;3.70;99.90;;;;;;5062234;28;20259;-67
2020/12/26 11:04:23;;;;;;;19.47;7.00;;;3.70;99.90;;;;;;5047787;28;20733;-67
2020/12/26 11:06:51;;;;;;;15.70;6.83;;;3.70;99.90;;;;;;5046639;28;20225;-68
2020/12/26 11:09:18;;;;;;;16.87;6.67;;;3.60;99.90;;;;;;5047986;28;20306;-67
2020/12/26 11:11:48;;;;;;;18.50;6.53;;;3.50;99.90;;;;;;5048326;28;20685;-68
2020/12/26 11:14:14;;;;;;;19.73;7.03;;;3.40;99.90;;;;;;5047368;28;20236;-67
2020/12/26 11:16:41;;;;;;;21.87;7.93;;;3.40;99.90;;;;;;5046868;28;20268;-67
2020/12/26 11:19:08;;;;;;;20.77;7.10;;;3.30;99.90;;;;;;5048400;28;20254;-68
2020/12/26 11:21:34;;;;;;;20.33;7.07;;;3.30;99.90;;;;;;5047486;28;20293;-68
2020/12/26 11:24:02;;;;;;;17.80;6.60;;;3.40;99.90;;;;;;5097747;28;20362;-68
2020/12/26 11:26:28;;;;;;;14.97;6.43;;;3.40;99.90;;;;;;5109228;28;20240;-67
2020/12/26 11:28:55;;;;;;;15.40;5.97;;;3.50;99.90;;;;;;5108455;27;20346;-68
2020/12/26 11:31:22;;;;;;;11.70;5.27;;;3.60;99.90;;;;;;5107606;28;20207;-67
2020/12/26 11:33:49;;;;;;;12.13;4.73;;;3.60;99.90;;;;;;5110172;27;20211;-68
2020/12/26 11:36:20;;;;;;;9.23;4.03;;;3.70;99.90;;;;;;5079689;28;20203;-68
2020/12/26 11:38:47;;;;;;;6.50;3.40;;;3.70;99.90;;;;;;5081949;28;20216;-69
2020/12/26 11:41:19;;;;;;;6.33;3.47;;;3.70;99.90;;;;;;5050735;28;20237;-69
2020/12/26 11:43:45;;;;;;;7.80;3.33;;;3.70;99.90;;;;;;5010368;28;20627;-68
2020/12/26 11:46:13;;;;;;;8.70;3.50;;;3.70;99.90;;;;;;5016336;28;20216;-68
2020/12/26 11:48:40;;;;;;;6.87;3.17;;;3.60;99.90;;;;;;4982433;28;20754;-68
2020/12/26 11:51:08;;;;;;;7.40;3.63;;;3.60;99.90;;;;;;4979620;28;20215;-68
2020/12/26 11:53:34;;;;;;;7.70;3.70;;;3.60;99.90;;;;;;4968345;28;20669;-68
2020/12/26 11:56:01;;;;;;;9.20;4.17;;;3.60;99.90;;;;;;4966865;28;20219;-68
2020/12/26 11:58:28;;;;;;;14.13;4.60;;;3.60;99.90;;;;;;4974103;28;20330;-68
2020/12/26 12:00:55;;;;;;;10.70;5.07;;;3.60;99.90;;;;;;4973049;28;20225;-68
2020/12/26 12:03:22;;;;;;;15.13;5.40;;;3.60;99.90;;;;;;4974415;28;20208;-68
2020/12/26 12:05:49;;;;;;;12.20;4.77;;;3.60;99.90;;;;;;4962571;28;20406;-68
2020/12/26 12:08:18;;;;;;;9.23;4.70;;;3.60;99.90;;;;;;4951188;28;20278;-68
2020/12/26 12:10:44;;;;;;;13.27;4.80;;;3.60;99.90;;;;;;4942869;28;20235;-68
2020/12/26 12:13:11;;;;;;;10.87;4.63;;;3.50;99.90;;;;;;4978353;28;20213;-68
2020/12/26 12:15:41;;;;;;;10.80;5.07;;;3.50;99.90;;;;;;5042832;28;20233;-68
2020/12/26 12:18:08;;;;;;;12.23;5.07;;;3.50;99.90;;;;;;5041394;28;20285;-68
2020/12/26 12:20:34;;;;;;;12.00;4.10;;;3.50;99.90;;;;;;5037635;28;20300;-68
2020/12/26 12:23:02;;;;;;;11.03;4.37;;;3.50;99.90;;;;;;5001275;28;20199;-68
2020/12/26 12:25:31;;;;;;;10.83;4.83;;;3.50;99.90;;;;;;5012089;28;20603;-67
2020/12/26 12:27:58;;;;;;;13.13;4.97;;;3.50;99.90;;;;;;5042395;28;20712;-68
2020/12/26 12:30:27;;;;;;;10.70;5.10;;;3.40;99.90;;;;;;5040076;28;20209;-71
2020/12/26 12:32:55;;;;;;;11.47;5.10;;;3.40;99.90;;;;;;5042506;28;20594;-68
2020/12/26 12:35:22;;;;;;;11.63;4.80;;;3.40;99.90;;;;;;5040639;28;20414;-68
2020/12/26 12:37:51;;;;;;;12.87;5.13;;;3.40;99.90;;;;;;5032034;28;20211;-68
2020/12/26 12:40:19;;;;;;;8.77;4.80;;;3.40;99.90;;;;;;5001013;28;20223;-68
2020/12/26 12:42:46;;;;;;;12.63;5.13;;;3.40;99.90;;;;;;5038335;28;20571;-68
2020/12/26 12:45:12;;;;;;;10.13;4.83;;;3.40;99.90;;;;;;5044340;28;20244;-69
2020/12/26 12:47:39;;;;;;;9.57;4.63;;;3.40;99.90;;;;;;5040789;28;20402;-69
2020/12/26 12:50:08;;;;;;;11.57;4.73;;;3.40;99.90;;;;;;5046436;28;20367;-68
2020/12/26 12:52:35;;;;;;;11.17;4.13;;;3.30;99.90;;;;;;4966375;28;20208;-68
2020/12/26 12:55:01;;;;;;;13.63;4.77;;;3.40;99.90;;;;;;5001149;28;20219;-67
2020/12/26 12:57:28;;;;;;;11.97;4.87;;;3.30;99.90;;;;;;5028803;28;20202;-68
2020/12/26 12:59:55;;;;;;;11.87;4.60;;;3.30;99.90;;;;;;5022389;28;20864;-68